Time,TemperatureF,DewpointF,PressureIn,WindDirection,WindDirectionDegrees,WindSpeedMPH,WindSpeedGustMPH,Humidity,HourlyPrecipIn,Conditions,Clouds,dailyrainin,SolarRadiationWatts/m^2,SoftwareType,DateUTC
2013-10-27 00:13:00,50.0,32.0,-100.00,NNE,29,0.0,2.0,49,-99.99,,,0.00,0.000000,,2013-10-27 06:13:00,
2013-10-27 00:42:00,48.0,31.0,-100.00,SSW,203,0.0,2.0,52,-99.99,,,0.00,0.000000,,2013-10-27 06:42:00,
2013-10-27 01:12:00,48.0,31.0,-100.00,SSW,203,0.0,2.0,52,-99.99,,,0.00,0.000000,,2013-10-27 07:12:00,
2013-10-27 01:21:00,48.0,31.0,-100.00,SSW,203,0.0,2.0,52,-99.99,,,0.00,0.000000,,2013-10-27 07:21:00,
2013-10-27 01:32:00,48.0,31.0,-100.00,SSW,203,0.0,2.0,52,-99.99,,,0.00,0.000000,,2013-10-27 07:32:00,
2013-10-27 01:42:00,48.0,31.0,-100.00,WSW,241,0.0,2.0,51,0.00,,,0.00,0.000000,,2013-10-27 07:42:00,
2013-10-27 02:42:00,47.0,31.0,-100.00,South,191,0.0,3.0,53,0.00,,,0.00,0.000000,,2013-10-27 08:42:00,
2013-10-27 10:42:00,49.0,32.0,-100.00,ESE,119,4.0,7.0,51,-99.99,,,0.00,242.000000,,2013-10-27 16:42:00,
2013-10-27 11:22:00,49.0,32.0,-100.00,ESE,119,4.0,7.0,51,-99.99,,,0.00,242.000000,,2013-10-27 17:22:00,
2013-10-27 11:34:00,49.0,32.0,-100.00,ESE,119,4.0,7.0,51,-99.99,,,0.00,242.000000,,2013-10-27 17:34:00,
2013-10-27 11:42:00,52.0,32.0,-100.00,SSE,157,6.0,9.0,47,0.00,,,0.00,409.000000,,2013-10-27 17:42:00,
2013-10-27 12:12:00,52.0,32.0,-100.00,SSE,157,6.0,9.0,47,0.00,,,0.00,409.000000,,2013-10-27 18:12:00,
2013-10-27 12:22:00,52.0,32.0,-100.00,SSE,157,6.0,9.0,47,0.00,,,0.00,409.000000,,2013-10-27 18:22:00,
2013-10-27 12:32:00,52.0,32.0,-100.00,SSE,157,6.0,9.0,47,0.00,,,0.00,409.000000,,2013-10-27 18:32:00,
2013-10-27 12:42:00,51.0,33.0,-100.00,SSE,161,5.0,10.0,49,0.00,,,0.00,288.000000,,2013-10-27 18:42:00,
2013-10-27 13:11:00,51.0,33.0,-100.00,SSE,161,5.0,10.0,49,0.00,,,0.00,288.000000,,2013-10-27 19:11:00,
2013-10-27 13:22:00,51.0,33.0,-100.00,SSE,161,5.0,10.0,49,0.00,,,0.00,288.000000,,2013-10-27 19:22:00,
2013-10-27 13:32:00,51.0,33.0,-100.00,SSE,161,5.0,10.0,49,0.00,,,0.00,288.000000,,2013-10-27 19:32:00,
2013-10-27 13:42:00,53.0,33.0,-100.00,South,177,3.0,8.0,47,0.00,,,0.00,212.000000,,2013-10-27 19:42:00,
2013-10-27 14:12:00,53.0,33.0,-100.00,South,177,3.0,8.0,47,0.00,,,0.00,212.000000,,2013-10-27 20:12:00,
2013-10-27 14:22:00,53.0,33.0,-100.00,South,177,3.0,8.0,47,0.00,,,0.00,212.000000,,2013-10-27 20:22:00,
2013-10-27 14:32:00,53.0,33.0,-100.00,South,177,3.0,8.0,47,0.00,,,0.00,212.000000,,2013-10-27 20:32:00,
2013-10-27 14:42:00,55.0,33.0,-100.00,South,178,2.0,5.0,43,0.00,,,0.00,267.000000,,2013-10-27 20:42:00,
2013-10-27 15:11:00,55.0,33.0,-100.00,South,178,2.0,5.0,43,0.00,,,0.00,267.000000,,2013-10-27 21:11:00,
2013-10-27 15:21:00,55.0,33.0,-100.00,South,178,2.0,5.0,43,0.00,,,0.00,267.000000,,2013-10-27 21:21:00,
2013-10-27 15:34:00,55.0,33.0,-100.00,South,178,2.0,5.0,43,0.00,,,0.00,267.000000,,2013-10-27 21:34:00,
2013-10-27 15:42:00,58.0,33.0,-100.00,SSW,210,2.0,8.0,39,0.00,,,0.00,260.000000,,2013-10-27 21:42:00,
2013-10-27 16:13:00,58.0,33.0,-100.00,SSW,210,2.0,8.0,39,0.00,,,0.00,260.000000,,2013-10-27 22:13:00,
2013-10-27 16:24:00,58.0,33.0,-100.00,SSW,210,2.0,8.0,39,0.00,,,0.00,260.000000,,2013-10-27 22:24:00,
2013-10-27 16:33:00,58.0,33.0,-100.00,SSW,210,2.0,8.0,39,0.00,,,0.00,260.000000,,2013-10-27 22:33:00,
2013-10-27 16:42:00,57.0,30.0,-100.00,WNW,296,4.0,6.0,36,0.00,,,0.00,177.000000,,2013-10-27 22:42:00,
2013-10-27 17:11:00,57.0,30.0,-100.00,WNW,296,4.0,6.0,36,0.00,,,0.00,177.000000,,2013-10-27 23:11:00,
2013-10-27 17:22:00,57.0,30.0,-100.00,WNW,296,4.0,6.0,36,0.00,,,0.00,177.000000,,2013-10-27 23:22:00,
2013-10-27 17:33:00,57.0,30.0,-100.00,WNW,296,4.0,6.0,36,0.00,,,0.00,177.000000,,2013-10-27 23:33:00,
2013-10-27 17:42:00,56.0,33.0,-100.00,WSW,251,0.0,8.0,42,0.00,,,0.00,80.000000,,2013-10-27 23:42:00,
2013-10-27 18:11:00,56.0,33.0,-100.00,WSW,251,0.0,8.0,42,0.00,,,0.00,80.000000,,2013-10-28 00:11:00,
2013-10-27 18:22:00,56.0,33.0,-100.00,WSW,251,0.0,8.0,42,0.00,,,0.00,80.000000,,2013-10-28 00:22:00,
2013-10-27 18:32:00,56.0,33.0,-100.00,WSW,251,0.0,8.0,42,0.00,,,0.00,80.000000,,2013-10-28 00:32:00,
2013-10-27 18:42:00,53.0,33.0,-100.00,WSW,258,0.0,5.0,47,0.00,,,0.00,22.000000,,2013-10-28 00:42:00,
2013-10-27 19:12:00,53.0,33.0,-100.00,WSW,258,0.0,5.0,47,0.00,,,0.00,22.000000,,2013-10-28 01:12:00,
2013-10-27 19:21:00,53.0,33.0,-100.00,WSW,258,0.0,5.0,47,0.00,,,0.00,22.000000,,2013-10-28 01:21:00,
2013-10-27 19:32:00,53.0,33.0,-100.00,WSW,258,0.0,5.0,47,0.00,,,0.00,22.000000,,2013-10-28 01:32:00,
2013-10-27 19:42:00,50.0,32.0,-100.00,ENE,66,6.0,13.0,50,0.00,,,0.00,0.000000,,2013-10-28 01:42:00,
2013-10-27 20:12:00,50.0,32.0,-100.00,ENE,66,6.0,13.0,50,0.00,,,0.00,0.000000,,2013-10-28 02:12:00,
2013-10-27 20:22:00,50.0,32.0,-100.00,ENE,66,6.0,13.0,50,0.00,,,0.00,0.000000,,2013-10-28 02:22:00,
2013-10-27 20:32:00,50.0,32.0,-100.00,ENE,66,6.0,13.0,50,0.00,,,0.00,0.000000,,2013-10-28 02:32:00,
2013-10-27 20:42:00,50.0,33.0,-100.00,East,80,3.0,14.0,51,0.00,,,0.00,0.000000,,2013-10-28 02:42:00,
2013-10-27 21:11:00,50.0,33.0,-100.00,East,80,3.0,14.0,51,0.00,,,0.00,0.000000,,2013-10-28 03:11:00,
2013-10-27 21:22:00,50.0,33.0,-100.00,East,80,3.0,14.0,51,0.00,,,0.00,0.000000,,2013-10-28 03:22:00,
2013-10-27 21:34:00,50.0,33.0,-100.00,East,80,3.0,14.0,51,0.00,,,0.00,0.000000,,2013-10-28 03:34:00,
2013-10-27 21:42:00,50.0,33.0,-100.00,SSW,203,2.0,8.0,52,0.00,,,0.00,0.000000,,2013-10-28 03:42:00,
2013-10-27 22:13:00,50.0,33.0,-100.00,SSW,203,2.0,8.0,52,0.00,,,0.00,0.000000,,2013-10-28 04:13:00,
2013-10-27 22:23:00,50.0,33.0,-100.00,SSW,203,2.0,8.0,52,0.00,,,0.00,0.000000,,2013-10-28 04:23:00,
2013-10-27 22:34:00,50.0,33.0,-100.00,SSW,203,2.0,8.0,52,0.00,,,0.00,0.000000,,2013-10-28 04:34:00,
2013-10-27 22:42:00,48.0,34.0,-100.00,WNW,294,4.0,16.0,57,0.00,,,0.00,0.000000,,2013-10-28 04:42:00,
2013-10-27 23:13:00,48.0,34.0,-100.00,WNW,294,4.0,16.0,57,0.00,,,0.00,0.000000,,2013-10-28 05:13:00,
2013-10-27 23:22:00,48.0,34.0,-100.00,WNW,294,4.0,16.0,57,0.00,,,0.00,0.000000,,2013-10-28 05:22:00,
2013-10-27 23:34:00,48.0,34.0,-100.00,WNW,294,4.0,16.0,57,0.00,,,0.00,0.000000,,2013-10-28 05:34:00,
2013-10-27 23:42:00,48.0,34.0,-100.00,NNW,339,6.0,14.0,59,0.00,,,0.00,0.000000,,2013-10-28 05:42:00,